Data for 05/04/2006

Time Sea-Level Adjusted Pressure Absolute Pressure Temperature Relative Humidity Dew Point   
(mb) (inHg) (mb) (inHg) (C) (F) (%) (C) (F)
00:05 1024 30.24 853 25.19 2.2 36 52 -6.6 20.1
00:10 1024 30.24 853 25.19 2.2 35.9 53 -6.5 20.2
00:15 1024 30.24 853 25.19 2.1 35.8 53 -6.5 20.3
00:20 1024 30.24 853 25.19 2.1 35.7 53 -6.5 20.2
00:25 1024 30.24 853 25.19 2 35.6 53 -6.5 20.2
00:30 1024 30.24 853 25.19 1.9 35.4 53 -6.6 20.1
00:35 1024 30.24 853 25.19 1.9 35.3 53 -6.7 19.9
00:40 1024 30.24 853 25.19 1.8 35.3 53 -6.7 19.9
00:45 1024 30.24 853 25.19 1.8 35.2 53 -6.7 19.9
00:50 1024 30.24 853 25.19 1.7 35.1 54 -6.7 19.9
00:55 1024 30.24 853 25.19 1.6 34.8 54 -6.7 19.9
01:00 1024 30.24 853 25.19 1.6 34.9 54 -6.8 19.8
01:05 1024 30.24 853 25.19 1.5 34.7 55 -6.7 20
01:10 1024 30.24 853 25.19 1.4 34.5 55 -6.7 20
01:15 1024 30.24 853 25.19 1.4 34.5 55 -6.7 19.9
01:20 1024 30.24 853 25.19 1.4 34.5 55 -6.7 19.9
01:25 1024 30.24 853 25.19 1.4 34.5 55 -6.7 19.9
01:30 1024 30.24 853 25.19 1.5 34.7 53 -7 19.3
01:35 1024 30.24 853 25.19 1.6 34.8 54 -6.9 19.6
01:40 1024 30.24 853 25.19 1.5 34.6 54 -6.8 19.7
01:45 1024 30.24 853 25.19 1.3 34.4 55 -6.8 19.8
01:50 1024 30.24 853 25.19 1.2 34.1 56 -6.7 19.9
01:55 1024 30.24 853 25.19 1.1 34 56 -6.7 19.9
02:00 1024 30.24 853 25.19 1 33.8 58 -6.4 20.5
02:05 1024 30.24 853 25.19 0.2 32.4 62 -6.2 20.9
02:10 1024 30.24 853 25.19 -0.2 31.6 63 -6.4 20.5
02:15 1024 30.24 853 25.19 0 32.1 62 -6.4 20.5
02:20 1024 30.24 853 25.19 0.3 32.5 61 -6.3 20.6
02:25 1024 30.24 853 25.19 0.4 32.7 62 -6.1 21.1
02:30 1024 30.24 853 25.19 0.3 32.5 63 -6.1 21.1
02:35 1024 30.24 853 25.19 0.3 32.5 63 -6 21.2
02:40 1024 30.24 853 25.19 0.3 32.6 63 -5.9 21.4
02:45 1024 30.24 853 25.19 0.1 32.1 65 -5.8 21.6
02:50 1024 30.24 853 25.19 0.2 32.3 64 -5.8 21.5
02:55 1024 30.24 853 25.19 0.4 32.7 62 -6 21.2
03:00 1024 30.24 853 25.19 0.3 32.5 64 -5.7 21.8
03:05 1024 30.24 853 25.19 0.1 32.2 65 -5.7 21.8
03:10 1024 30.24 853 25.19 0.2 32.3 64 -5.8 21.5
03:15 1024 30.24 853 25.19 0.2 32.4 65 -5.6 21.9
03:20 1023 30.21 853 25.19 -0 32 66 -5.6 22
03:25 1023 30.21 853 25.19 -0.2 31.6 67 -5.6 21.9
03:30 1023 30.21 853 25.19 -0.3 31.5 65 -6 21.1
03:35 1023 30.21 853 25.19 -0.2 31.6 67 -5.6 21.9
03:40 1023 30.21 853 25.19 -0.5 31.1 72 -5 23
03:45 1023 30.21 853 25.19 -0.5 31.1 73 -4.8 23.3
03:50 1023 30.21 853 25.19 -0.6 31 73 -4.9 23.2
03:55 1023 30.21 853 25.19 -0.4 31.2 73 -4.8 23.4
04:00 1023 30.21 853 25.19 -0.5 31.2 73 -4.8 23.4
04:05 1023 30.21 853 25.19 -0.6 31 76 -4.3 24.2
04:10 1023 30.21 853 25.19 -0.8 30.6 76 -4.4 24
04:15 1023 30.21 853 25.19 -0.8 30.5 77 -4.3 24.3
04:20 1023 30.21 853 25.19 -1 30.2 77 -4.5 23.9
04:25 1023 30.21 853 25.19 -1.1 30.1 77 -4.5 23.9
04:30 1023 30.21 853 25.19 -1 30.1 78 -4.5 23.9
04:35 1023 30.21 853 25.19 -1 30.2 77 -4.5 23.9
04:40 1023 30.21 853 25.19 -1 30.2 77 -4.6 23.7
04:45 1023 30.21 853 25.19 -1 30.3 75 -4.8 23.4
04:50 1023 30.21 853 25.19 -0.9 30.3 75 -4.8 23.4
04:55 1023 30.21 853 25.19 -1 30.2 76 -4.8 23.4
05:00 1023 30.21 853 25.19 -1.1 30.1 76 -4.7 23.5
05:05 1023 30.21 853 25.19 -1.2 29.8 78 -4.7 23.6
05:10 1024 30.24 853 25.19 -1.4 29.5 79 -4.6 23.7
05:15 1024 30.24 853 25.19 -1.5 29.3 79 -4.6 23.6
05:20 1024 30.24 853 25.19 -1.5 29.4 78 -4.9 23.2
05:25 1024 30.24 853 25.19 -1.3 29.7 77 -4.8 23.3
05:30 1024 30.24 853 25.19 -1.3 29.7 78 -4.6 23.7
05:35 1024 30.24 853 25.19 -1.4 29.4 80 -4.5 23.9
05:40 1024 30.24 853 25.19 -1.5 29.3 81 -4.4 24.1
05:45 1024 30.24 853 25.19 -1.4 29.4 82 -4.1 24.5
05:50 1024 30.24 853 25.19 -1.5 29.4 82 -4.1 24.6
05:55 1024 30.24 853 25.19 -1.4 29.5 82 -4.1 24.6
06:00 1024 30.24 853 25.19 -1.4 29.5 82 -4.1 24.7
06:05 1024 30.24 853 25.19 -1.3 29.6 82 -4 24.7
06:10 1024 30.24 853 25.19 -1.3 29.7 82 -4 24.8
06:15 1024 30.24 853 25.19 -1.3 29.7 82 -3.9 24.9
06:20 1024 30.24 853 25.19 -1.2 29.8 83 -3.8 25.1
06:25 1024 30.24 853 25.19 -1.3 29.7 83 -3.8 25.1
06:30 1024 30.24 853 25.19 -1.3 29.7 83 -3.8 25.2
06:35 1024 30.24 853 25.19 -1.2 29.8 84 -3.7 25.4
06:40 1024 30.24 853 25.19 -1.1 30.1 83 -3.7 25.4
06:45 1024 30.24 853 25.19 -0.9 30.3 82 -3.7 25.4
06:50 1024 30.24 853 25.19 -0.9 30.4 81 -3.7 25.3
06:55 1024 30.24 853 25.19 -0.8 30.5 81 -3.7 25.4
07:00 1024 30.24 853 25.19 -0.8 30.5 80 -3.8 25.1
07:05 1024 30.24 853 25.19 -0.7 30.7 79 -3.9 25
07:10 1024 30.24 853 25.19 -0.7 30.7 79 -3.9 24.9
07:15 1024 30.24 853 25.19 -0.7 30.7 78 -4 24.7
07:20 1024 30.24 853 25.19 -0.7 30.7 77 -4.3 24.3
07:25 1024 30.24 853 25.19 -0.7 30.8 76 -4.4 24
07:30 1024 30.24 853 25.19 -0.5 31 74 -4.6 23.7
07:35 1024 30.24 853 25.19 -0.2 31.6 72 -4.7 23.6
07:40 1024 30.24 853 25.19 -0 31.9 71 -4.7 23.5
07:45 1024 30.24 853 25.19 -0 31.9 71 -4.8 23.4
07:50 1024 30.24 853 25.19 0.2 32.3 70 -4.7 23.5
07:55 1024 30.24 853 25.19 0.5 32.9 68 -4.7 23.6
08:00 1024 30.24 853 25.19 0.3 32.6 71 -4.2 24.4
08:05 1024 30.24 853 25.19 0.2 32.4 71 -4.4 24.1
08:10 1024 30.24 853 25.19 0.3 32.5 72 -4.2 24.4
08:15 1024 30.24 853 25.19 0.1 32.2 69 -4.9 23.2
08:20 1024 30.24 853 25.19 0.4 32.7 71 -4.3 24.2
08:25 1024 30.24 853 25.19 0.3 32.5 71 -4.4 24.1
08:30 1024 30.24 853 25.19 0.1 32.3 72 -4.3 24.3
08:35 1024 30.24 853 25.19 0 32 72 -4.4 24.2
08:40 1024 30.24 853 25.19 0.3 32.6 71 -4.3 24.3
08:45 1024 30.24 853 25.19 0.4 32.8 70 -4.4 24.1
08:50 1024 30.24 853 25.19 0.8 33.4 68 -4.5 23.9
08:55 1024 30.24 853 25.19 1 33.7 68 -4.3 24.2
09:00 1024 30.24 853 25.19 1 33.7 68 -4.4 24.1
09:05 1024 30.24 853 25.19 1.4 34.4 66 -4.3 24.2
09:10 1024 30.24 853 25.19 1.3 34.3 66 -4.3 24.2
09:15 1024 30.24 853 25.19 1.8 35.3 64 -4.4 24.2
09:20 1024 30.24 853 25.19 1.5 34.8 64 -4.5 23.9
09:25 1024 30.24 853 25.19 1.8 35.3 64 -4.3 24.2
09:30 1023 30.21 853 25.19 1.9 35.5 62 -4.7 23.6
09:35 1023 30.21 853 25.19 2.4 36.3 60 -4.5 23.8
09:40 1023 30.21 853 25.19 2.2 36 61 -4.6 23.7
09:45 1023 30.21 853 25.19 2.1 35.8 61 -4.7 23.5
09:50 1023 30.21 853 25.19 2.4 36.3 60 -4.6 23.7
09:55 1023 30.21 853 25.19 2.5 36.5 59 -4.8 23.4
10:00 1023 30.21 853 25.19 2.4 36.2 58 -5 23.1
10:05 1023 30.21 853 25.19 2.4 36.3 60 -4.7 23.6
10:10 1023 30.21 853 25.19 2.9 37.2 57 -4.8 23.3
10:15 1023 30.21 853 25.19 3 37.4 57 -4.6 23.7
10:20 1023 30.21 853 25.19 2.8 37 57 -5 23.1
10:25 1023 30.21 853 25.19 3 37.4 57 -4.8 23.3
10:30 1023 30.21 853 25.19 3.5 38.2 56 -4.6 23.8
10:35 1023 30.21 853 25.19 3.7 38.7 56 -4.3 24.2
10:40 1023 30.21 853 25.19 2.8 37 58 -4.6 23.7
10:45 1023 30.21 853 25.19 2.9 37.2 56 -5 23.1
10:50 1023 30.21 853 25.19 2.6 36.7 58 -4.8 23.3
10:55 1023 30.21 853 25.19 3 37.4 55 -5.1 22.9
11:00 1023 30.21 852 25.16 3 37.3 55 -5.1 22.8
11:05 1023 30.21 852 25.16 3.5 38.2 54 -4.9 23.1
11:10 1023 30.21 852 25.16 3.9 39 53 -4.7 23.5
11:15 1023 30.21 852 25.16 4 39.2 52 -4.9 23.1
11:20 1023 30.21 852 25.16 4 39.3 53 -4.6 23.8
11:25 1023 30.21 852 25.16 3.9 39.1 53 -4.7 23.6
11:30 1023 30.21 852 25.16 4 39.2 53 -4.7 23.6
11:35 1023 30.21 852 25.16 4.5 40 50 -5.1 22.9
11:40 1023 30.21 852 25.16 4.6 40.3 51 -4.6 23.7
11:45 1023 30.21 852 25.16 4.1 39.4 52 -4.9 23.2
11:50 1023 30.21 852 25.16 4.2 39.6 50 -5.2 22.6
11:55 1023 30.21 852 25.16 4.3 39.7 51 -4.9 23.1
12:00 1023 30.21 852 25.16 4.6 40.3 51 -4.7 23.6
12:05 1023 30.21 852 25.16 5 41 49 -4.7 23.5
12:10 1023 30.21 852 25.16 5.1 41.1 49 -4.8 23.4
12:15 1023 30.21 852 25.16 5 40.9 49 -4.7 23.5
12:20 1023 30.21 852 25.16 5 41.1 49 -4.7 23.6
12:25 1023 30.21 852 25.16 4.8 40.6 51 -4.6 23.8
12:30 1023 30.21 852 25.16 5.1 41.1 48 -5.1 22.8
12:35 1023 30.21 852 25.16 5.2 41.4 49 -4.5 23.9
12:40 1023 30.21 852 25.16 5.3 41.6 47 -5 23
12:45 1022 30.18 852 25.16 5.1 41.1 49 -4.8 23.3
12:50 1022 30.18 852 25.16 5.5 41.9 48 -4.5 23.8
12:55 1022 30.18 851 25.13 5.5 42 47 -4.8 23.4
13:00 1022 30.18 851 25.13 5.4 41.7 48 -4.7 23.5
13:05 1022 30.18 851 25.13 5.6 42.1 47 -4.7 23.5
13:10 1022 30.18 851 25.13 5.7 42.3 47 -4.8 23.4
13:15 1022 30.18 851 25.13 6 42.8 46 -4.8 23.4
13:20 1022 30.18 851 25.13 6 42.8 47 -4.5 23.9
13:25 1022 30.18 851 25.13 6.3 43.4 44 -4.9 23.1
13:30 1022 30.18 851 25.13 6.2 43.2 46 -4.6 23.7
13:35 1022 30.18 851 25.13 6.7 44.1 44 -4.6 23.6
13:40 1022 30.18 851 25.13 6.5 43.7 47 -4.1 24.7
13:45 1022 30.18 851 25.13 6.7 44.1 44 -4.6 23.8
13:50 1022 30.18 851 25.13 6.9 44.4 44 -4.6 23.8
13:55 1022 30.18 851 25.13 6.9 44.5 42 -5.1 22.9
14:00 1021 30.15 851 25.13 7.3 45.1 43 -4.4 24.1
14:05 1022 30.18 851 25.13 7.6 45.7 41 -4.7 23.5
14:10 1021 30.15 851 25.13 7.3 45.2 42 -4.7 23.5
14:15 1021 30.15 851 25.13 7.4 45.3 41 -5.1 22.8
14:20 1021 30.15 851 25.13 7.8 46.1 40 -5 23
14:25 1021 30.15 851 25.13 8.1 46.6 40 -4.8 23.4
14:30 1021 30.15 850 25.1 8.4 47.2 39 -4.6 23.7
14:35 1021 30.15 850 25.1 8.5 47.4 40 -4.2 24.4
14:40 1021 30.15 850 25.1 8.6 47.4 39 -4.6 23.8
14:45 1021 30.15 850 25.1 8.5 47.3 39 -4.8 23.4
14:50 1021 30.15 850 25.1 8.8 47.8 38 -4.7 23.5
14:55 1021 30.15 850 25.1 9.1 48.4 39 -4.1 24.5
15:00 1021 30.15 850 25.1 9.1 48.4 37 -4.6 23.6
15:05 1021 30.15 850 25.1 9.2 48.6 37 -4.5 23.9
15:10 1021 30.15 850 25.1 8.9 48 40 -4.1 24.6
15:15 1021 30.15 850 25.1 9.7 49.5 35 -4.8 23.4
15:20 1021 30.15 850 25.1 10 50 35 -4.7 23.5
15:25 1021 30.15 850 25.1 9.7 49.5 36 -4.4 24
15:30 1021 30.15 850 25.1 10.1 50.1 35 -4.6 23.8
15:35 1021 30.15 850 25.1 9.9 49.8 35 -4.9 23.3
15:40 1020 30.12 850 25.1 10.4 50.8 34 -4.7 23.6
15:45 1020 30.12 850 25.1 10.3 50.5 35 -4.4 24
15:50 1020 30.12 850 25.1 10.3 50.6 34 -4.8 23.4
15:55 1020 30.12 850 25.1 10.9 51.5 32 -5.3 22.5
16:00 1020 30.12 850 25.1 10.5 50.9 35 -4.4 24
16:05 1020 30.12 849 25.07 10.8 51.4 33 -4.9 23.2
16:10 1020 30.12 849 25.07 10.8 51.4 34 -4.5 23.9
16:15 1020 30.12 849 25.07 10.6 51.1 32 -5.3 22.4
16:20 1020 30.12 849 25.07 10.5 51 33 -5.2 22.7
16:25 1020 30.12 849 25.07 11.1 52 31 -5.3 22.4
16:30 1020 30.12 849 25.07 11.2 52.2 34 -4.1 24.7
16:35 1020 30.12 849 25.07 11 51.8 32 -4.9 23.2
16:40 1020 30.12 849 25.07 11.2 52.1 31 -5.2 22.7
16:45 1020 30.12 849 25.07 11.3 52.4 32 -4.6 23.8
16:50 1020 30.12 849 25.07 11.1 52 34 -4.2 24.4
16:55 1020 30.12 849 25.07 11.4 52.4 32 -4.7 23.6
17:00 1020 30.12 849 25.07 11.2 52.2 32 -4.6 23.7
17:05 1020 30.12 849 25.07 11.4 52.5 32 -4.7 23.5
17:10 1020 30.12 849 25.07 11.6 53 33 -4.2 24.4
17:15 1020 30.12 849 25.07 11 51.8 34 -4.4 24.1
17:20 1020 30.12 849 25.07 11.4 52.5 33 -4.4 24.1
17:25 1020 30.12 849 25.07 11.3 52.3 34 -4.2 24.5
17:30 1020 30.12 849 25.07 11.4 52.5 32 -4.5 24
17:35 1020 30.12 849 25.07 10.9 51.6 33 -4.6 23.8
17:40 1020 30.12 849 25.07 10.8 51.5 33 -4.8 23.4
17:45 1020 30.12 849 25.07 10.8 51.4 33 -4.8 23.3
17:50 1020 30.12 849 25.07 10.4 50.7 34 -4.8 23.4
17:55 1020 30.12 849 25.07 10.7 51.2 32 -5.3 22.5
18:00 1020 30.12 849 25.07 10.6 51 33 -4.9 23.2
18:05 1020 30.12 849 25.07 10.2 50.4 34 -4.9 23.1
18:10 1020 30.12 849 25.07 10.1 50.2 34 -5.2 22.6
18:15 1020 30.12 849 25.07 9.9 49.8 33 -5.4 22.2
18:20 1020 30.12 849 25.07 9.7 49.5 34 -5.2 22.6
18:25 1020 30.12 849 25.07 9.8 49.7 35 -5.1 22.9
18:30 1020 30.12 849 25.07 9.8 49.7 34 -5.3 22.5
18:35 1020 30.12 849 25.07 9.8 49.6 34 -5.2 22.6
18:40 1020 30.12 849 25.07 9.6 49.3 34 -5.4 22.4
18:45 1020 30.12 849 25.07 9.4 49 34 -5.5 22.2
18:50 1020 30.12 849 25.07 9.3 48.8 36 -5.1 22.8
18:55 1020 30.12 849 25.07 9.2 48.5 35 -5.3 22.4
19:00 1020 30.12 849 25.07 8.9 47.9 36 -5.2 22.6
19:05 1020 30.12 849 25.07 8.9 48 37 -5.1 22.8
19:10 1020 30.12 849 25.07 8.9 47.9 36 -5.3 22.4
19:15 1020 30.12 849 25.07 8.8 47.8 36 -5.5 22.1
19:20 1020 30.12 849 25.07 8.7 47.6 36 -5.7 21.7
19:25 1020 30.12 849 25.07 8.5 47.2 37 -5.3 22.4
19:30 1020 30.12 849 25.07 8.3 47 37 -5.5 22.1
19:35 1020 30.12 849 25.07 8.2 46.8 39 -5.1 22.8
19:40 1020 30.12 849 25.07 8.1 46.6 38 -5.3 22.5
19:45 1020 30.12 849 25.07 8 46.4 40 -4.7 23.5
19:50 1020 30.12 849 25.07 7.8 46.1 41 -4.6 23.7
19:55 1020 30.12 849 25.07 7.7 45.9 42 -4.3 24.2
20:00 1020 30.12 849 25.07 7.6 45.6 42 -4.6 23.7
20:05 1020 30.12 849 25.07 7.5 45.5 41 -4.7 23.5
20:10 1020 30.12 849 25.07 7.4 45.2 42 -4.8 23.4
20:15 1020 30.12 849 25.07 7.2 45 43 -4.6 23.8
20:20 1020 30.12 849 25.07 7.1 44.7 44 -4.3 24.2
20:25 1020 30.12 849 25.07 6.9 44.5 45 -4.3 24.3
20:30 1020 30.12 849 25.07 6.8 44.3 44 -4.5 24
20:35 1020 30.12 849 25.07 6.7 44.1 43 -5 23
20:40 1020 30.12 849 25.07 6.6 43.9 44 -4.8 23.3
20:45 1020 30.12 849 25.07 6.5 43.6 45 -4.6 23.8
20:50 1020 30.12 849 25.07 6.4 43.4 46 -4.5 24
20:55 1020 30.12 849 25.07 6.3 43.3 46 -4.3 24.2
21:00 1020 30.12 849 25.07 6.2 43.1 47 -4.3 24.3
21:05 1020 30.12 849 25.07 6.1 43 47 -4.2 24.4
21:10 1020 30.12 849 25.07 6 42.8 48 -4.1 24.6
21:15 1020 30.12 850 25.1 5.7 42.3 49 -4.1 24.7
21:20 1020 30.12 850 25.1 5.5 41.9 50 -4 24.8
21:25 1020 30.12 850 25.1 5.3 41.6 50 -4.2 24.5
21:30 1021 30.15 850 25.1 5.5 41.9 49 -4.3 24.3
21:35 1021 30.15 850 25.1 5.6 42 49 -4.3 24.2
21:40 1021 30.15 850 25.1 5.5 42 49 -4.3 24.2
21:45 1021 30.15 850 25.1 5.4 41.7 49 -4.3 24.2
21:50 1021 30.15 850 25.1 5.4 41.8 49 -4.3 24.2
21:55 1021 30.15 850 25.1 5.4 41.7 50 -4.3 24.3
22:00 1021 30.15 850 25.1 5.2 41.4 50 -4.2 24.4
22:05 1021 30.15 850 25.1 5.2 41.3 51 -4.3 24.3
22:10 1021 30.15 850 25.1 5 41 51 -4.3 24.3
22:15 1021 30.15 850 25.1 5 41 51 -4.3 24.3
22:20 1021 30.15 850 25.1 4.9 40.9 51 -4.3 24.3
22:25 1021 30.15 850 25.1 4.9 40.8 52 -4.2 24.4
22:30 1021 30.15 850 25.1 4.7 40.5 52 -4.2 24.5
22:35 1021 30.15 850 25.1 4.6 40.4 52 -4.3 24.3
22:40 1021 30.15 850 25.1 4.6 40.3 52 -4.3 24.3
22:45 1021 30.15 850 25.1 4.6 40.3 52 -4.3 24.3
22:50 1021 30.15 850 25.1 4.6 40.3 53 -4.2 24.4
22:55 1021 30.15 850 25.1 4.6 40.3 52 -4.3 24.3
23:00 1021 30.15 850 25.1 4.7 40.4 52 -4.3 24.2
23:05 1021 30.15 850 25.1 4.6 40.3 52 -4.3 24.2
23:10 1021 30.15 850 25.1 4.5 40.2 53 -4.2 24.5
23:15 1021 30.15 850 25.1 4.4 39.8 53 -4.3 24.2
23:20 1021 30.15 850 25.1 4.4 40 53 -4.4 24
23:25 1021 30.15 850 25.1 4.6 40.4 52 -4.4 24.2
23:30 1021 30.15 850 25.1 4.6 40.3 52 -4.3 24.2
23:35 1021 30.15 850 25.1 4.5 40.1 53 -4.3 24.2
23:40 1021 30.15 850 25.1 4.5 40 53 -4.2 24.4
23:45 1021 30.15 850 25.1 4 39.3 55 -4.2 24.4
23:50 1021 30.15 850 25.1 3.9 39 55 -4.4 24.1
23:55 1021 30.15 850 25.1 3.9 38.9 55 -4.3 24.3
24:00 1021 30.15 850 25.1 3.6 38.5 57 -4.2 24.5